createdAt,value
2022-08-05T00:00:54.811Z,100.00
2022-08-05T00:01:56.727Z,100.00
2022-08-05T00:03:15.533Z,100.00
2022-08-05T00:04:18.106Z,100.00
2022-08-05T00:06:03.178Z,100.00
2022-08-05T00:06:51.729Z,100.00
2022-08-05T00:07:59.815Z,100.00
2022-08-05T00:09:12.781Z,100.00
2022-08-05T00:10:15.055Z,100.00
2022-08-05T00:11:20.550Z,100.00
2022-08-05T00:12:25.857Z,100.00
2022-08-05T00:13:38.368Z,100.00
2022-08-05T00:14:41.549Z,100.00
2022-08-05T00:15:58.146Z,100.00
2022-08-05T00:17:04.774Z,100.00
2022-08-05T00:18:22.788Z,100.00
2022-08-05T00:19:33.715Z,100.00
2022-08-05T00:20:42.511Z,100.00
2022-08-05T00:21:46.926Z,100.00
2022-08-05T00:22:57.423Z,100.00
2022-08-05T00:24:10.436Z,100.00
2022-08-05T00:25:13.146Z,100.00
2022-08-05T00:26:20.748Z,100.00
2022-08-05T00:27:35.795Z,100.00
2022-08-05T00:28:41.207Z,100.00
2022-08-05T00:29:45.672Z,100.00
2022-08-05T00:30:51.920Z,100.00
2022-08-05T00:32:12.220Z,100.00
2022-08-05T00:34:42.395Z,100.00
2022-08-05T00:35:03.867Z,100.00
2022-08-05T00:36:16.343Z,100.00
2022-08-05T00:37:50.721Z,100.00
2022-08-05T00:38:51.796Z,100.00
2022-08-05T00:39:58.625Z,100.00
2022-08-05T00:41:01.118Z,100.00
2022-08-05T00:42:05.631Z,100.00
2022-08-05T00:43:10.574Z,100.00
2022-08-05T00:44:20.894Z,100.00
2022-08-05T00:45:38.765Z,100.00
2022-08-05T00:46:47.539Z,100.00
2022-08-05T00:47:57.822Z,100.00
2022-08-05T00:49:10.232Z,100.00
2022-08-05T00:50:16.510Z,100.00
2022-08-05T00:51:51.100Z,100.00
2022-08-05T00:52:45.400Z,100.00
2022-08-05T00:54:02.681Z,100.00
2022-08-05T00:55:05.418Z,100.00
2022-08-05T00:56:09.956Z,100.00
2022-08-05T00:57:13.887Z,100.00
2022-08-05T00:58:19.577Z,100.00
2022-08-05T00:59:21.375Z,100.00
2022-08-05T01:00:25.870Z,100.00
2022-08-05T01:01:42.797Z,100.00
2022-08-05T01:02:52.484Z,100.00
2022-08-05T01:03:54.908Z,100.00
2022-08-05T01:04:59.307Z,100.00
2022-08-05T01:06:01.252Z,100.00
2022-08-05T01:07:07.082Z,100.00
2022-08-05T01:08:41.246Z,100.00
2022-08-05T01:09:40.126Z,100.00
2022-08-05T01:10:51.616Z,100.00
2022-08-05T01:11:59.753Z,100.00
2022-08-05T01:13:13.232Z,100.00
2022-08-05T01:14:28.410Z,100.00
2022-08-05T01:15:36.441Z,100.00
2022-08-05T01:16:46.923Z,100.00
2022-08-05T01:17:53.650Z,100.00
2022-08-05T01:19:00.880Z,100.00
2022-08-05T01:20:23.924Z,100.00
2022-08-05T01:21:38.170Z,100.00
2022-08-05T01:22:48.566Z,100.00
2022-08-05T01:23:58.148Z,100.00
2022-08-05T01:25:25.034Z,100.00
2022-08-05T01:27:17.939Z,100.00
2022-08-05T01:28:24.253Z,100.00
2022-08-05T01:29:31.699Z,100.00
2022-08-05T01:30:37.104Z,100.00
2022-08-05T01:31:45.163Z,100.00
2022-08-05T01:32:47.191Z,100.00
2022-08-05T01:33:53.593Z,100.00
2022-08-05T01:34:57.846Z,100.00
2022-08-05T01:36:02.682Z,100.00
2022-08-05T01:37:09.028Z,100.00
2022-08-05T01:38:24.584Z,100.00
2022-08-05T01:39:45.664Z,100.00
2022-08-05T01:40:49.217Z,100.00
2022-08-05T01:41:54.077Z,100.00
2022-08-05T01:42:56.082Z,100.00
2022-08-05T01:44:00.470Z,100.00
2022-08-05T01:45:03.191Z,100.00
2022-08-05T01:46:16.633Z,100.00
2022-08-05T01:47:39.406Z,100.00
2022-08-05T01:48:41.856Z,100.00
2022-08-05T01:50:01.641Z,100.00
2022-08-05T01:51:08.703Z,100.00
2022-08-05T01:52:18.074Z,100.00
2022-08-05T01:53:54.640Z,100.00
2022-08-05T01:54:52.008Z,100.00
2022-08-05T01:55:55.667Z,100.00
2022-08-05T01:58:10.982Z,100.00
2022-08-05T01:58:40.724Z,100.00
2022-08-05T01:59:49.360Z,100.00
2022-08-05T02:00:51.470Z,100.00
2022-08-05T02:01:56.290Z,100.00
2022-08-05T02:03:03.670Z,100.00
2022-08-05T02:04:08.299Z,100.00
2022-08-05T02:05:12.610Z,100.00
2022-08-05T02:06:37.345Z,100.00
2022-08-05T02:07:40.099Z,100.00
2022-08-05T02:08:54.753Z,100.00
2022-08-05T02:10:00.593Z,100.00
2022-08-05T02:11:08.443Z,100.00
2022-08-05T02:12:19.734Z,100.00
2022-08-05T02:13:28.513Z,100.00
2022-08-05T02:14:55.864Z,100.00
2022-08-05T02:16:02.425Z,100.00
2022-08-05T02:17:08.533Z,100.00
2022-08-05T02:18:32.320Z,100.00
2022-08-05T02:19:47.010Z,100.00
2022-08-05T02:20:58.815Z,100.00
2022-08-05T02:22:25.733Z,100.00
2022-08-05T02:23:33.484Z,100.00
2022-08-05T02:24:39.794Z,100.00
2022-08-05T02:25:49.355Z,100.00
2022-08-05T02:26:56.120Z,100.00
2022-08-05T02:28:00.370Z,100.00
2022-08-05T02:29:05.046Z,100.00
2022-08-05T02:30:07.297Z,100.00
2022-08-05T02:31:15.223Z,100.00
2022-08-05T02:32:24.064Z,100.00
2022-08-05T02:33:38.592Z,100.00
2022-08-05T02:34:43.666Z,100.00
2022-08-05T02:35:59.100Z,100.00
2022-08-05T02:37:06.909Z,100.00
2022-08-05T02:38:09.696Z,100.00
2022-08-05T02:39:14.277Z,100.00
2022-08-05T02:40:19.010Z,100.00
2022-08-05T02:41:29.003Z,100.00
2022-08-05T02:42:38.322Z,100.00
2022-08-05T02:44:06.378Z,100.00
2022-08-05T02:45:07.423Z,100.00
2022-08-05T02:46:09.222Z,100.00
2022-08-05T02:47:21.171Z,100.00
2022-08-05T02:48:29.488Z,100.00
2022-08-05T02:49:35.984Z,100.00
2022-08-05T02:50:39.155Z,100.00
2022-08-05T02:52:03.483Z,100.00
2022-08-05T02:53:06.788Z,100.00
2022-08-05T02:54:36.431Z,100.00
2022-08-05T02:55:53.940Z,100.00
2022-08-05T02:57:03.130Z,100.00
2022-08-05T02:58:10.222Z,100.00
2022-08-05T02:59:17.220Z,100.00
2022-08-05T03:00:20.375Z,100.00
2022-08-05T03:01:28.117Z,100.00
2022-08-05T03:02:30.706Z,100.00
2022-08-05T03:04:04.248Z,100.00
2022-08-05T03:04:58.007Z,100.00
2022-08-05T03:06:54.185Z,100.00
2022-08-05T03:07:40.553Z,100.00
2022-08-05T03:08:49.103Z,100.00
2022-08-05T03:09:56.956Z,100.00
2022-08-05T03:11:54.694Z,100.00
2022-08-05T03:12:32.202Z,100.00
2022-08-05T03:13:51.606Z,100.00
2022-08-05T03:14:58.722Z,100.00
2022-08-05T03:16:00.532Z,100.00
2022-08-05T03:17:08.980Z,100.00
2022-08-05T03:18:10.968Z,100.00
2022-08-05T03:19:20.347Z,100.00
2022-08-05T03:20:36.112Z,100.00
2022-08-05T03:21:41.324Z,100.00
2022-08-05T03:22:50.615Z,100.00
2022-08-05T03:23:55.217Z,100.00
2022-08-05T03:24:58.362Z,100.00
2022-08-05T03:26:30.082Z,100.00
2022-08-05T03:27:59.074Z,100.00
2022-08-05T03:28:58.447Z,100.00
2022-08-05T03:30:08.377Z,100.00
2022-08-05T03:31:18.318Z,100.00
2022-08-05T03:32:35.316Z,100.00
2022-08-05T03:33:50.956Z,100.00
2022-08-05T03:34:54.690Z,100.00
2022-08-05T03:35:59.761Z,100.00
2022-08-05T03:37:05.349Z,100.00
2022-08-05T03:38:07.351Z,100.00
2022-08-05T03:39:13.073Z,100.00
2022-08-05T03:40:31.257Z,100.00
2022-08-05T03:41:38.808Z,100.00
2022-08-05T03:42:52.437Z,100.00
2022-08-05T03:44:08.367Z,100.00
2022-08-05T03:45:21.618Z,100.00
2022-08-05T03:46:29.990Z,100.00
2022-08-05T03:47:35.576Z,100.00
2022-08-05T03:48:46.776Z,100.00
2022-08-05T03:49:51.388Z,100.00
2022-08-05T03:52:39.201Z,100.00
2022-08-05T03:55:34.272Z,100.00
2022-08-05T03:55:54.209Z,100.00
2022-08-05T03:56:11.002Z,100.00
2022-08-05T03:57:17.907Z,100.00
2022-08-05T03:58:19.881Z,100.00
2022-08-05T03:59:47.080Z,100.00
2022-08-05T04:00:53.840Z,99.98
2022-08-05T04:01:58.918Z,96.63
2022-08-05T04:03:02.897Z,94.24
2022-08-05T04:04:10.829Z,91.42
2022-08-05T04:05:13.011Z,88.28
2022-08-05T04:06:18.159Z,85.64
2022-08-05T04:07:25.651Z,83.04
2022-08-05T04:08:36.353Z,80.20
2022-08-05T04:09:53.074Z,78.66
2022-08-05T04:10:56.219Z,76.91
2022-08-05T04:12:01.862Z,75.23
2022-08-05T04:13:04.498Z,73.96
2022-08-05T04:14:09.228Z,72.45
2022-08-05T04:15:19.799Z,70.63
2022-08-05T04:16:32.344Z,69.66
2022-08-05T04:17:55.714Z,68.51
2022-08-05T04:19:00.184Z,66.47
2022-08-05T04:20:02.518Z,65.23
2022-08-05T04:21:07.290Z,64.50
2022-08-05T04:22:13.091Z,63.87
2022-08-05T04:24:05.273Z,62.74
2022-08-05T04:24:52.920Z,61.85
2022-08-05T04:26:00.272Z,61.21
2022-08-05T04:27:05.374Z,60.41
2022-08-05T04:28:11.283Z,59.71
2022-08-05T04:29:17.195Z,59.16
2022-08-05T04:30:18.986Z,59.02
2022-08-05T04:31:27.620Z,58.08
2022-08-05T04:32:40.541Z,57.25
2022-08-05T04:34:18.048Z,57.30
2022-08-05T04:35:17.748Z,56.61
2022-08-05T04:36:49.390Z,56.32
2022-08-05T04:38:02.738Z,55.33
2022-08-05T04:39:10.498Z,54.99
2022-08-05T04:40:14.953Z,54.98
2022-08-05T04:41:37.089Z,54.34
2022-08-05T04:42:40.669Z,54.13
2022-08-05T04:43:48.023Z,53.91
2022-08-05T04:44:53.911Z,53.85
2022-08-05T04:45:58.373Z,53.63
2022-08-05T04:47:09.589Z,52.79
2022-08-05T04:48:18.519Z,52.72
2022-08-05T04:50:01.147Z,52.29
2022-08-05T04:51:02.753Z,51.89
2022-08-05T04:52:06.165Z,52.05
2022-08-05T04:53:13.062Z,52.15
2022-08-05T04:54:15.839Z,52.23
2022-08-05T04:56:05.048Z,52.36
2022-08-05T04:56:44.590Z,53.17
2022-08-05T04:57:47.863Z,53.21
2022-08-05T04:58:56.090Z,53.52
2022-08-05T04:59:58.443Z,53.75
2022-08-05T05:01:03.355Z,54.11
2022-08-05T05:02:36.260Z,54.72
2022-08-05T05:03:41.705Z,56.75
2022-08-05T05:04:49.682Z,59.60
2022-08-05T05:06:39.568Z,64.33
2022-08-05T05:07:23.999Z,68.49
2022-08-05T05:08:33.824Z,72.93
2022-08-05T05:09:35.595Z,75.81
2022-08-05T05:10:55.824Z,78.57
2022-08-05T05:12:02.803Z,82.19
2022-08-05T05:13:07.537Z,84.75
2022-08-05T05:14:09.533Z,88.10
2022-08-05T05:15:56.116Z,90.56
2022-08-05T05:16:42.462Z,94.59
2022-08-05T05:17:56.898Z,97.42
2022-08-05T05:19:18.768Z,100.00
2022-08-05T05:20:23.864Z,100.00
2022-08-05T05:21:33.274Z,100.00
2022-08-05T05:22:35.366Z,100.00
2022-08-05T05:24:02.155Z,100.00
2022-08-05T05:25:16.374Z,100.00
2022-08-05T05:26:28.689Z,100.00
2022-08-05T05:27:44.776Z,100.00
2022-08-05T05:28:50.401Z,100.00
2022-08-05T05:30:04.272Z,100.00
2022-08-05T05:31:09.719Z,100.00
2022-08-05T05:32:12.720Z,100.00
2022-08-05T05:33:23.257Z,100.00
2022-08-05T05:34:26.950Z,100.00
2022-08-05T05:35:37.639Z,100.00
2022-08-05T05:36:40.043Z,100.00
2022-08-05T05:37:59.593Z,100.00
2022-08-05T05:39:03.814Z,100.00
2022-08-05T05:40:09.322Z,100.00
2022-08-05T05:41:14.253Z,100.00
2022-08-05T05:42:20.916Z,100.00
2022-08-05T05:43:54.828Z,100.00
2022-08-05T05:44:47.552Z,100.00
2022-08-05T05:45:49.639Z,100.00
2022-08-05T05:46:54.066Z,100.00
2022-08-05T05:48:06.035Z,100.00
2022-08-05T05:49:22.624Z,100.00
2022-08-05T05:50:25.880Z,100.00
2022-08-05T05:51:30.314Z,100.00
2022-08-05T05:52:51.948Z,100.00
2022-08-05T05:53:59.534Z,100.00
2022-08-05T05:55:07.388Z,100.00
2022-08-05T05:56:26.235Z,100.00
2022-08-05T05:57:42.861Z,100.00
2022-08-05T05:58:56.831Z,100.00
2022-08-05T06:00:06.353Z,100.00
2022-08-05T06:01:17.413Z,100.00
2022-08-05T06:02:32.685Z,100.00
2022-08-05T06:04:01.285Z,100.00
2022-08-05T06:05:04.074Z,100.00
2022-08-05T06:06:15.055Z,100.00
2022-08-05T06:07:16.995Z,100.00
2022-08-05T06:08:31.587Z,100.00
2022-08-05T06:09:52.633Z,100.00
2022-08-05T06:10:59.364Z,100.00
2022-08-05T06:12:02.901Z,100.00
2022-08-05T06:13:07.834Z,100.00
2022-08-05T06:14:10.492Z,100.00
2022-08-05T06:15:23.996Z,100.00
2022-08-05T06:16:28.518Z,100.00
2022-08-05T06:17:53.360Z,100.00
2022-08-05T06:18:55.963Z,100.00
2022-08-05T06:20:04.660Z,100.00
2022-08-05T06:21:07.907Z,100.00
2022-08-05T06:22:27.906Z,100.00
2022-08-05T06:23:44.214Z,100.00
2022-08-05T06:24:48.296Z,100.00
2022-08-05T06:26:12.269Z,100.00
2022-08-05T06:28:11.762Z,100.00
2022-08-05T06:28:43.709Z,100.00
2022-08-05T06:30:02.659Z,100.00
2022-08-05T06:31:18.026Z,100.00
2022-08-05T06:32:25.931Z,100.00
2022-08-05T06:34:08.045Z,100.00
2022-08-05T06:34:56.306Z,100.00
2022-08-05T06:36:05.664Z,100.00
2022-08-05T06:37:11.240Z,100.00
2022-08-05T06:38:16.834Z,100.00
2022-08-05T06:39:18.693Z,100.00
2022-08-05T06:40:28.039Z,100.00
2022-08-05T06:41:34.708Z,100.00
2022-08-05T06:42:44.974Z,100.00
2022-08-05T06:43:57.714Z,100.00
2022-08-05T06:45:05.586Z,100.00
2022-08-05T06:46:13.407Z,100.00
2022-08-05T06:48:11.633Z,100.00
2022-08-05T06:48:54.766Z,100.00
2022-08-05T06:50:05.388Z,100.00
2022-08-05T06:51:09.575Z,100.00
2022-08-05T06:52:36.599Z,100.00
2022-08-05T06:53:39.517Z,100.00
2022-08-05T06:54:41.456Z,100.00
2022-08-05T06:55:46.027Z,100.00
2022-08-05T06:56:54.968Z,100.00
2022-08-05T06:58:29.203Z,100.00
2022-08-05T06:59:38.729Z,100.00
2022-08-05T07:00:44.122Z,100.00
2022-08-05T07:01:49.165Z,100.00
2022-08-05T07:02:54.946Z,100.00
2022-08-05T07:03:59.345Z,100.00
2022-08-05T07:05:01.269Z,100.00
2022-08-05T07:06:14.347Z,100.00
2022-08-05T07:07:35.245Z,100.00
2022-08-05T07:08:47.306Z,100.00
2022-08-05T07:09:55.651Z,100.00
2022-08-05T07:11:00.385Z,100.00
2022-08-05T07:12:06.567Z,100.00
2022-08-05T07:13:57.052Z,100.00
2022-08-05T07:15:00.657Z,100.00
2022-08-05T07:17:57.180Z,100.00
2022-08-05T07:18:01.903Z,100.00
2022-08-05T07:19:06.591Z,100.00
2022-08-05T07:22:00.585Z,100.00
2022-08-05T07:23:00.921Z,100.00
2022-08-05T07:24:02.763Z,100.00
2022-08-05T07:25:21.956Z,100.00
2022-08-05T07:26:25.981Z,100.00
2022-08-05T07:27:58.047Z,100.00
2022-08-05T07:28:55.494Z,100.00
2022-08-05T07:30:22.190Z,100.00
2022-08-05T07:31:40.870Z,100.00
2022-08-05T07:32:53.337Z,100.00
2022-08-05T07:33:59.920Z,100.00
2022-08-05T07:36:03.319Z,100.00
2022-08-05T07:36:26.136Z,100.00
2022-08-05T07:37:36.057Z,100.00
2022-08-05T07:38:44.204Z,100.00
2022-08-05T07:40:26.933Z,100.00
2022-08-05T07:41:35.092Z,100.00
2022-08-05T07:42:36.382Z,100.00
2022-08-05T07:43:38.371Z,100.00
2022-08-05T07:44:43.227Z,100.00
2022-08-05T07:45:57.613Z,100.00
2022-08-05T07:47:06.210Z,100.00
2022-08-05T07:48:11.091Z,100.00
2022-08-05T07:49:18.170Z,100.00
2022-08-05T07:50:24.979Z,100.00
2022-08-05T07:51:52.830Z,100.00
2022-08-05T07:52:56.163Z,100.00
2022-08-05T07:54:01.908Z,100.00
2022-08-05T07:55:03.937Z,100.00
2022-08-05T07:57:00.691Z,100.00
2022-08-05T07:58:02.446Z,100.00
2022-08-05T07:59:04.843Z,100.00
2022-08-05T08:00:14.536Z,100.00
2022-08-05T08:01:16.874Z,100.00
2022-08-05T08:02:30.976Z,100.00
2022-08-05T08:03:52.067Z,100.00
2022-08-05T08:04:54.222Z,100.00
2022-08-05T08:05:58.618Z,100.00
2022-08-05T08:07:01.050Z,100.00
2022-08-05T08:08:12.335Z,100.00
2022-08-05T08:09:14.377Z,100.00
2022-08-05T08:10:20.543Z,100.00
2022-08-05T08:11:27.564Z,100.00
2022-08-05T08:12:49.269Z,100.00
2022-08-05T08:14:00.839Z,100.00
2022-08-05T08:15:04.535Z,100.00
2022-08-05T08:16:35.755Z,100.00
2022-08-05T08:17:35.389Z,100.00
2022-08-05T08:18:37.493Z,100.00
2022-08-05T08:20:22.360Z,100.00
2022-08-05T08:21:09.818Z,98.07
2022-08-05T08:22:19.464Z,97.92
2022-08-05T08:24:02.054Z,100.00
2022-08-05T08:24:51.863Z,100.00
2022-08-05T08:26:00.560Z,100.00
2022-08-05T08:27:07.428Z,100.00
2022-08-05T08:28:18.120Z,100.00
2022-08-05T08:30:04.571Z,100.00
2022-08-05T08:30:50.063Z,98.57
2022-08-05T08:31:54.623Z,97.34
2022-08-05T08:32:56.431Z,96.51
2022-08-05T08:34:01.683Z,94.60
2022-08-05T08:35:03.645Z,93.46
2022-08-05T08:36:39.188Z,92.71
2022-08-05T08:37:36.693Z,92.93
2022-08-05T08:38:38.525Z,93.04
2022-08-05T08:39:49.555Z,91.48
2022-08-05T08:40:54.223Z,91.30
2022-08-05T08:42:00.127Z,91.54
2022-08-05T08:44:55.737Z,93.42
2022-08-05T08:45:19.289Z,96.36
2022-08-05T08:45:59.493Z,94.95
2022-08-05T08:47:02.262Z,94.72
2022-08-05T08:48:23.174Z,93.56
2022-08-05T08:50:07.740Z,95.60
2022-08-05T08:51:22.225Z,96.78
2022-08-05T08:52:17.858Z,95.88
2022-08-05T08:53:22.245Z,97.25
2022-08-05T08:54:27.422Z,96.46
2022-08-05T08:56:04.215Z,97.22
2022-08-05T08:56:54.049Z,96.75
2022-08-05T08:58:01.883Z,94.72
2022-08-05T08:59:14.651Z,94.60
2022-08-05T09:00:23.827Z,94.45
2022-08-05T09:01:28.178Z,93.83
2022-08-05T09:02:33.682Z,93.28
2022-08-05T09:03:40.631Z,95.49
2022-08-05T09:05:16.093Z,94.57
2022-08-05T09:06:17.198Z,95.24
2022-08-05T09:07:29.001Z,94.10
2022-08-05T09:08:33.674Z,93.88
2022-08-05T09:09:35.904Z,94.45
2022-08-05T09:10:46.926Z,93.53
2022-08-05T09:11:52.141Z,92.56
2022-08-05T09:13:04.518Z,91.61
2022-08-05T09:14:54.257Z,92.78
2022-08-05T09:15:31.359Z,89.30
2022-08-05T09:16:33.226Z,88.68
2022-08-05T09:17:42.881Z,88.31
2022-08-05T09:18:50.450Z,88.58
2022-08-05T09:19:55.061Z,85.39
2022-08-05T09:21:11.525Z,86.01
2022-08-05T09:22:31.375Z,84.53
2022-08-05T09:23:43.597Z,86.26
2022-08-05T09:24:56.936Z,86.11
2022-08-05T09:26:20.604Z,86.87
2022-08-05T09:28:04.817Z,86.71
2022-08-05T09:28:56.217Z,84.61
2022-08-05T09:30:01.216Z,84.80
2022-08-05T09:31:43.881Z,86.71
2022-08-05T09:32:46.602Z,86.56
2022-08-05T09:33:52.175Z,86.45
2022-08-05T09:34:56.311Z,84.90
2022-08-05T09:36:11.895Z,84.42
2022-08-05T09:38:12.454Z,83.72
2022-08-05T09:38:59.136Z,83.46
2022-08-05T09:40:01.035Z,83.15
2022-08-05T09:41:06.853Z,84.54
2022-08-05T09:42:13.611Z,88.51
2022-08-05T09:43:41.959Z,86.23
2022-08-05T09:44:50.474Z,84.44
2022-08-05T09:46:06.525Z,82.04
2022-08-05T09:47:17.026Z,81.41
2022-08-05T09:48:26.911Z,81.23
2022-08-05T09:49:54.497Z,79.42
2022-08-05T09:51:00.573Z,80.36
2022-08-05T09:52:16.704Z,79.40
2022-08-05T09:53:23.044Z,79.40
2022-08-05T09:54:31.337Z,79.77
2022-08-05T09:55:56.773Z,77.52
2022-08-05T09:57:03.189Z,76.21
2022-08-05T09:58:25.150Z,76.72
2022-08-05T09:59:27.929Z,77.57
2022-08-05T10:00:35.135Z,76.69
2022-08-05T10:01:45.843Z,79.68
2022-08-05T10:02:51.702Z,79.65
2022-08-05T10:04:00.142Z,79.94
2022-08-05T10:05:32.946Z,81.17
2022-08-05T10:06:35.333Z,78.29
2022-08-05T10:08:10.576Z,79.63
2022-08-05T10:09:27.772Z,80.86
2022-08-05T10:10:40.694Z,82.14
2022-08-05T10:11:46.425Z,79.43
2022-08-05T10:12:51.203Z,79.15
2022-08-05T10:13:57.422Z,78.95
2022-08-05T10:15:16.961Z,77.41
2022-08-05T10:16:52.471Z,76.52
2022-08-05T10:18:20.288Z,75.78
2022-08-05T10:19:31.951Z,74.68
2022-08-05T10:20:59.874Z,76.88
2022-08-05T10:22:09.004Z,77.48
2022-08-05T10:23:34.677Z,76.56
2022-08-05T10:24:46.159Z,74.88
2022-08-05T10:25:52.566Z,73.67
2022-08-05T10:27:00.543Z,74.87
2022-08-05T10:28:13.551Z,75.14
2022-08-05T10:30:07.230Z,75.10
2022-08-05T10:32:52.800Z,77.53
2022-08-05T10:33:02.200Z,74.54
2022-08-05T10:33:39.305Z,76.99
2022-08-05T10:34:41.721Z,75.49
2022-08-05T10:35:52.370Z,74.74
2022-08-05T10:37:04.484Z,73.43
2022-08-05T10:38:08.430Z,73.35
2022-08-05T10:39:24.804Z,75.59
2022-08-05T10:40:58.207Z,76.84
2022-08-05T10:42:22.751Z,77.91
2022-08-05T10:43:57.048Z,74.96
2022-08-05T10:45:01.173Z,74.88
2022-08-05T10:46:10.557Z,76.03
2022-08-05T10:47:26.069Z,78.17
2022-08-05T10:48:56.381Z,77.89
2022-08-05T10:50:20.678Z,78.11
2022-08-05T10:51:28.859Z,78.25
2022-08-05T10:52:49.845Z,75.00
2022-08-05T10:53:54.498Z,75.39
2022-08-05T10:55:03.668Z,77.69
2022-08-05T10:56:21.405Z,78.67
2022-08-05T10:57:31.780Z,76.68
2022-08-05T10:58:48.690Z,75.92
2022-08-05T11:00:18.162Z,75.41
2022-08-05T11:01:55.471Z,73.79
2022-08-05T11:03:10.002Z,73.62
2022-08-05T11:04:31.712Z,73.35
2022-08-05T11:05:36.572Z,70.95
2022-08-05T11:07:00.598Z,71.79
2022-08-05T11:08:21.689Z,71.85
2022-08-05T11:09:39.475Z,71.65
2022-08-05T11:11:00.997Z,71.31
2022-08-05T11:12:10.975Z,74.30
2022-08-05T11:13:27.600Z,75.26
2022-08-05T11:15:19.026Z,74.77
2022-08-05T11:16:01.904Z,73.83
2022-08-05T11:17:59.623Z,74.41
2022-08-05T11:18:47.252Z,72.93
2022-08-05T11:20:10.821Z,76.23
2022-08-05T11:21:40.785Z,75.63
2022-08-05T11:22:54.125Z,73.47
2022-08-05T11:24:14.771Z,73.44
2022-08-05T11:26:04.686Z,74.41
2022-08-05T11:27:18.959Z,77.06
2022-08-05T11:28:20.749Z,73.88
2022-08-05T11:29:37.687Z,71.52
2022-08-05T11:31:01.622Z,71.90
2022-08-05T11:32:27.423Z,74.61
2022-08-05T11:33:44.032Z,72.73
2022-08-05T11:34:54.380Z,73.29
2022-08-05T11:36:07.969Z,74.70
2022-08-05T11:38:26.694Z,75.23
2022-08-05T11:38:51.847Z,75.06
2022-08-05T11:40:03.440Z,74.01
2022-08-05T11:41:35.021Z,72.32
2022-08-05T11:42:37.825Z,74.49
2022-08-05T11:44:04.462Z,72.99
2022-08-05T11:45:23.556Z,74.18
2022-08-05T11:46:37.556Z,72.15
2022-08-05T11:47:49.763Z,71.40
2022-08-05T11:48:52.724Z,71.09
2022-08-05T11:50:03.411Z,69.83
2022-08-05T11:51:05.217Z,70.92
2022-08-05T11:52:11.890Z,70.46
2022-08-05T11:53:13.839Z,70.78
2022-08-05T11:54:35.017Z,73.58
2022-08-05T11:55:37.004Z,74.46
2022-08-05T11:56:54.230Z,74.54
2022-08-05T11:58:10.719Z,71.63
2022-08-05T11:59:21.381Z,71.33
2022-08-05T12:00:30.250Z,71.34
2022-08-05T12:01:32.379Z,73.02
2022-08-05T12:02:40.105Z,73.19
2022-08-05T12:03:43.315Z,74.29
2022-08-05T12:05:00.847Z,74.98
2022-08-05T12:06:05.796Z,77.82
2022-08-05T12:07:11.308Z,79.01
2022-08-05T12:08:18.264Z,79.37
2022-08-05T12:09:38.630Z,76.18
2022-08-05T12:10:49.287Z,74.16
2022-08-05T12:11:53.552Z,74.63
2022-08-05T12:12:59.550Z,74.84
2022-08-05T12:14:05.421Z,74.08
2022-08-05T12:15:12.843Z,72.36
2022-08-05T12:16:19.455Z,71.77
2022-08-05T12:18:02.534Z,72.11
2022-08-05T12:18:49.061Z,71.25
2022-08-05T12:20:26.289Z,71.27
2022-08-05T12:21:30.619Z,72.73
2022-08-05T12:22:36.278Z,73.51
2022-08-05T12:23:51.634Z,71.89
2022-08-05T12:24:56.223Z,71.33
2022-08-05T12:25:58.065Z,73.42
2022-08-05T12:27:09.482Z,72.26
2022-08-05T12:28:11.802Z,74.53
2022-08-05T12:29:23.027Z,73.61
2022-08-05T12:30:32.083Z,73.29
2022-08-05T12:31:43.480Z,72.81
2022-08-05T12:32:53.665Z,72.59
2022-08-05T12:33:58.424Z,71.83
2022-08-05T12:35:03.924Z,71.24
2022-08-05T12:36:08.619Z,72.88
2022-08-05T12:37:17.555Z,72.81
2022-08-05T12:38:23.645Z,71.50
2022-08-05T12:39:38.500Z,72.01
2022-08-05T12:40:43.618Z,72.58
2022-08-05T12:41:50.129Z,72.86
2022-08-05T12:42:59.867Z,70.81
2022-08-05T12:44:28.500Z,71.26
2022-08-05T12:45:49.592Z,69.83
2022-08-05T12:46:55.395Z,69.75
2022-08-05T12:48:17.190Z,69.57
2022-08-05T12:49:25.556Z,70.53
2022-08-05T12:50:30.978Z,69.67
2022-08-05T12:52:13.552Z,69.38
2022-08-05T12:53:01.347Z,72.75
2022-08-05T12:54:03.908Z,74.47
2022-08-05T12:55:28.270Z,74.13
2022-08-05T12:56:35.114Z,72.70
2022-08-05T12:58:49.881Z,69.86
2022-08-05T12:59:21.110Z,72.24
2022-08-05T13:02:00.628Z,72.38
2022-08-05T13:02:10.051Z,68.57
2022-08-05T13:03:13.488Z,68.70
2022-08-05T13:04:21.304Z,70.77
2022-08-05T13:05:24.042Z,70.14
2022-08-05T13:06:29.327Z,72.45
2022-08-05T13:07:59.415Z,74.68
2022-08-05T13:08:57.838Z,71.20
2022-08-05T13:10:04.758Z,67.33
2022-08-05T13:11:07.012Z,68.22
2022-08-05T13:12:13.260Z,68.91
2022-08-05T13:14:06.559Z,70.07
2022-08-05T13:14:46.966Z,73.27
2022-08-05T13:16:12.146Z,73.48
2022-08-05T13:17:31.572Z,73.11
2022-08-05T13:18:53.014Z,73.11
2022-08-05T13:20:02.243Z,72.29
2022-08-05T13:21:04.739Z,71.99
2022-08-05T13:22:09.338Z,72.55
2022-08-05T13:23:14.061Z,71.86
2022-08-05T13:24:36.594Z,72.43
2022-08-05T13:25:52.502Z,71.01
2022-08-05T13:27:01.039Z,68.97
2022-08-05T13:28:06.888Z,69.37
2022-08-05T13:29:12.687Z,70.68
2022-08-05T13:30:35.365Z,70.96
2022-08-05T13:32:04.100Z,70.35
2022-08-05T13:33:07.995Z,71.40
2022-08-05T13:34:21.798Z,72.32
2022-08-05T13:35:42.837Z,72.76
2022-08-05T13:36:52.127Z,69.00
2022-08-05T13:37:55.460Z,67.78
2022-08-05T13:39:00.370Z,67.87
2022-08-05T13:40:14.424Z,65.90
2022-08-05T13:41:19.126Z,66.47
2022-08-05T13:42:27.146Z,68.32
2022-08-05T13:43:43.400Z,67.35
2022-08-05T13:44:50.654Z,67.24
2022-08-05T13:45:52.479Z,68.49
2022-08-05T13:47:04.538Z,68.56
2022-08-05T13:48:09.537Z,70.66
2022-08-05T13:49:31.331Z,71.42
2022-08-05T13:50:37.253Z,71.16
2022-08-05T13:51:46.059Z,73.04
2022-08-05T13:52:50.027Z,71.60
2022-08-05T13:53:57.946Z,71.20
2022-08-05T13:55:02.453Z,70.64
2022-08-05T13:56:18.099Z,69.30
2022-08-05T13:57:24.381Z,70.44
2022-08-05T13:58:30.694Z,72.05
2022-08-05T13:59:35.831Z,70.54
2022-08-05T14:00:37.759Z,70.78
2022-08-05T14:01:46.476Z,71.04
2022-08-05T14:03:01.549Z,70.74
2022-08-05T14:04:18.679Z,71.48
2022-08-05T14:05:48.060Z,70.15
2022-08-05T14:06:47.594Z,68.04
2022-08-05T14:08:00.138Z,67.42
2022-08-05T14:09:08.519Z,68.03
2022-08-05T14:10:28.960Z,68.20
2022-08-05T14:12:04.440Z,67.03
2022-08-05T14:13:03.574Z,66.66
2022-08-05T14:14:08.882Z,66.73
2022-08-05T14:16:04.742Z,67.14
2022-08-05T14:16:35.721Z,67.12
2022-08-05T14:17:37.494Z,69.13
2022-08-05T14:18:41.950Z,70.84
2022-08-05T14:19:55.925Z,68.73
2022-08-05T14:22:07.295Z,67.81
2022-08-05T14:22:30.345Z,67.69
2022-08-05T14:23:38.627Z,68.42
2022-08-05T14:24:40.461Z,68.75
2022-08-05T14:25:45.726Z,67.20
2022-08-05T14:27:08.417Z,68.15
2022-08-05T14:28:16.010Z,68.50
2022-08-05T14:29:31.863Z,68.22
2022-08-05T14:30:36.245Z,67.58
2022-08-05T14:32:02.999Z,67.81
2022-08-05T14:33:03.566Z,69.67
2022-08-05T14:34:07.389Z,69.07
2022-08-05T14:35:20.702Z,69.51
2022-08-05T14:36:27.696Z,69.79
2022-08-05T14:37:45.219Z,68.48
2022-08-05T14:38:53.013Z,66.54
2022-08-05T14:39:57.032Z,68.18
2022-08-05T14:41:06.321Z,69.21
2022-08-05T14:42:29.468Z,71.82
2022-08-05T14:44:02.168Z,70.17
2022-08-05T14:44:58.251Z,69.88
2022-08-05T14:46:01.343Z,69.53
2022-08-05T14:47:05.954Z,68.29
2022-08-05T14:48:10.686Z,68.52
2022-08-05T14:49:59.083Z,69.15
2022-08-05T14:50:59.690Z,67.50
2022-08-05T14:52:05.218Z,66.29
2022-08-05T14:53:15.207Z,64.08
2022-08-05T14:54:30.113Z,64.71
2022-08-05T14:55:39.306Z,64.08
2022-08-05T14:56:46.612Z,66.52
2022-08-05T14:57:54.352Z,68.76
2022-08-05T14:58:58.357Z,68.62
2022-08-05T15:00:02.776Z,67.74
2022-08-05T15:01:04.772Z,67.67
2022-08-05T15:02:20.112Z,69.44
2022-08-05T15:03:22.951Z,70.24
2022-08-05T15:04:29.137Z,70.27
2022-08-05T15:06:08.209Z,68.26
2022-08-05T15:06:55.694Z,68.58
2022-08-05T15:08:06.003Z,68.09
2022-08-05T15:09:51.116Z,66.88
2022-08-05T15:10:48.261Z,65.89
2022-08-05T15:11:52.656Z,66.55